createdAt,value
2018-06-16T00:00:37.000Z,4.50
2018-06-16T00:03:07.031Z,3.77
2018-06-16T00:05:36.727Z,4.10
2018-06-16T00:08:06.616Z,4.90
2018-06-16T00:10:36.696Z,4.87
2018-06-16T00:13:06.764Z,5.00
2018-06-16T00:15:36.868Z,5.13
2018-06-16T00:18:06.961Z,4.40
2018-06-16T00:20:37.088Z,4.57
2018-06-16T00:23:07.512Z,4.70
2018-06-16T00:25:37.611Z,5.13
2018-06-16T00:28:07.609Z,4.47
2018-06-16T00:30:37.656Z,4.83
2018-06-16T00:33:07.759Z,4.27
2018-06-16T00:35:37.835Z,4.53
2018-06-16T00:38:07.956Z,4.70
2018-06-16T00:40:37.986Z,4.77
2018-06-16T00:43:08.036Z,5.37
2018-06-16T00:45:38.112Z,5.37
2018-06-16T00:48:08.196Z,4.73
2018-06-16T00:50:38.282Z,5.10
2018-06-16T00:53:08.368Z,4.60
2018-06-16T00:55:38.468Z,4.90
2018-06-16T00:58:08.608Z,5.13
2018-06-16T01:00:38.881Z,5.10
2018-06-16T01:03:08.928Z,4.80
2018-06-16T01:05:39.028Z,5.10
2018-06-16T01:08:09.104Z,5.00
2018-06-16T01:10:39.216Z,4.60
2018-06-16T01:13:09.332Z,4.83
2018-06-16T01:15:39.132Z,5.03
2018-06-16T01:18:08.964Z,5.07
2018-06-16T01:20:39.091Z,4.67
2018-06-16T01:23:09.208Z,5.30
2018-06-16T01:25:39.372Z,4.77
2018-06-16T01:28:09.576Z,5.23
2018-06-16T01:30:39.700Z,5.10
2018-06-16T01:33:09.837Z,5.43
2018-06-16T01:35:39.898Z,5.33
2018-06-16T01:38:10.044Z,4.73
2018-06-16T01:40:40.622Z,5.37
2018-06-16T01:43:10.716Z,5.90
2018-06-16T01:45:40.835Z,5.10
2018-06-16T01:48:10.964Z,5.80
2018-06-16T01:50:41.067Z,5.60
2018-06-16T01:53:11.252Z,5.30
2018-06-16T01:55:41.366Z,5.77
2018-06-16T01:58:11.486Z,5.23
2018-06-16T02:00:41.588Z,5.10
2018-06-16T02:03:11.718Z,5.93
2018-06-16T02:05:41.804Z,5.43
2018-06-16T02:08:11.886Z,5.30
2018-06-16T02:10:41.956Z,5.33
2018-06-16T02:13:12.012Z,4.80
2018-06-16T02:15:42.128Z,4.60
2018-06-16T02:18:12.249Z,4.50
2018-06-16T02:20:42.411Z,5.07
2018-06-16T02:23:12.504Z,4.73
2018-06-16T02:25:42.624Z,4.63
2018-06-16T02:28:12.786Z,3.87
2018-06-16T02:30:42.958Z,4.30
2018-06-16T02:33:13.035Z,5.10
2018-06-16T02:35:43.438Z,4.53
2018-06-16T02:38:13.616Z,4.30
2018-06-16T02:40:43.692Z,4.60
2018-06-16T02:43:13.962Z,3.93
2018-06-16T02:45:44.041Z,3.33
2018-06-16T02:48:14.144Z,3.73
2018-06-16T02:50:44.256Z,4.13
2018-06-16T02:53:14.407Z,3.57
2018-06-16T02:55:44.496Z,4.43
2018-06-16T02:58:14.619Z,3.03
2018-06-16T03:00:44.719Z,3.70
2018-06-16T03:03:14.905Z,3.60
2018-06-16T03:05:44.965Z,3.33
2018-06-16T03:08:15.070Z,3.60
2018-06-16T03:10:45.196Z,2.77
2018-06-16T03:13:14.939Z,3.17
2018-06-16T03:15:44.747Z,3.13
2018-06-16T03:18:14.803Z,3.70
2018-06-16T03:20:44.888Z,3.60
2018-06-16T03:23:14.960Z,4.30
2018-06-16T03:25:45.117Z,4.63
2018-06-16T03:28:15.256Z,4.13
2018-06-16T03:30:45.429Z,3.40
2018-06-16T03:33:15.562Z,4.20
2018-06-16T03:35:45.688Z,4.80
2018-06-16T03:38:15.826Z,6.07
2018-06-16T03:40:45.975Z,7.57
2018-06-16T03:43:16.045Z,6.73
2018-06-16T03:45:46.192Z,7.97
2018-06-16T03:48:16.360Z,7.47
2018-06-16T03:50:46.464Z,6.80
2018-06-16T03:53:16.622Z,6.20
2018-06-16T03:55:46.800Z,4.37
2018-06-16T03:58:16.915Z,4.30
2018-06-16T04:00:47.056Z,3.80
2018-06-16T04:03:17.144Z,4.10
2018-06-16T04:05:47.157Z,4.77
2018-06-16T04:08:17.307Z,3.63
2018-06-16T04:10:47.425Z,3.47
2018-06-16T04:13:17.604Z,3.17
2018-06-16T04:15:47.664Z,3.80
2018-06-16T04:18:17.784Z,2.93
2018-06-16T04:20:47.928Z,2.80
2018-06-16T04:23:18.077Z,3.10
2018-06-16T04:25:48.248Z,2.97
2018-06-16T04:28:18.378Z,2.90
2018-06-16T04:30:48.552Z,3.27
2018-06-16T04:33:18.660Z,2.23
2018-06-16T04:35:48.798Z,3.07
2018-06-16T04:38:18.947Z,2.53
2018-06-16T04:40:49.199Z,2.03
2018-06-16T04:43:19.332Z,3.30
2018-06-16T04:45:49.589Z,2.60
2018-06-16T04:48:19.709Z,2.33
2018-06-16T04:50:50.097Z,2.67
2018-06-16T04:53:20.246Z,2.33
2018-06-16T04:55:50.508Z,2.53
2018-06-16T04:58:20.868Z,3.37
2018-06-16T05:00:50.956Z,2.27
2018-06-16T05:03:20.867Z,1.77
2018-06-16T05:05:50.948Z,1.90
2018-06-16T05:08:21.102Z,2.77
2018-06-16T05:10:51.265Z,2.90
2018-06-16T05:13:21.369Z,3.90
2018-06-16T05:15:51.490Z,3.43
2018-06-16T05:18:21.614Z,2.47
2018-06-16T05:20:51.728Z,2.73
2018-06-16T05:23:21.910Z,3.37
2018-06-16T05:25:51.981Z,3.90
2018-06-16T05:28:22.261Z,4.33
2018-06-16T05:30:52.556Z,4.13
2018-06-16T05:33:22.697Z,4.10
2018-06-16T05:35:52.828Z,4.17
2018-06-16T05:38:23.041Z,3.47
2018-06-16T05:40:53.261Z,4.13
2018-06-16T05:43:23.388Z,3.60
2018-06-16T05:45:53.564Z,3.90
2018-06-16T05:48:23.668Z,3.40
2018-06-16T05:50:53.819Z,3.40
2018-06-16T05:53:23.996Z,2.83
2018-06-16T05:55:54.153Z,2.90
2018-06-16T05:58:24.581Z,3.70
2018-06-16T06:00:54.692Z,2.63
2018-06-16T06:03:24.840Z,3.00
2018-06-16T06:05:54.984Z,3.20
2018-06-16T06:08:25.113Z,2.87
2018-06-16T06:10:55.248Z,2.37
2018-06-16T06:13:25.433Z,2.60
2018-06-16T06:15:55.612Z,2.37
2018-06-16T06:18:25.712Z,2.10
2018-06-16T06:20:55.912Z,2.00
2018-06-16T06:23:26.024Z,2.40
2018-06-16T06:25:56.178Z,2.33
2018-06-16T06:28:26.326Z,2.30
2018-06-16T06:30:56.456Z,2.50
2018-06-16T06:33:26.692Z,2.00
2018-06-16T06:35:56.764Z,1.80
2018-06-16T06:38:26.856Z,1.57
2018-06-16T06:40:56.951Z,1.63
2018-06-16T06:43:27.034Z,1.60
2018-06-16T06:45:57.078Z,1.53
2018-06-16T06:48:27.202Z,2.07
2018-06-16T06:50:57.260Z,2.00
2018-06-16T06:53:27.308Z,2.40
2018-06-16T06:55:57.492Z,2.30
2018-06-16T06:58:27.594Z,1.70
2018-06-16T07:00:57.685Z,1.63
2018-06-16T07:03:27.826Z,1.90
2018-06-16T07:05:58.052Z,1.60
2018-06-16T07:08:28.217Z,1.30
2018-06-16T07:10:58.387Z,1.60
2018-06-16T07:13:28.245Z,1.40
2018-06-16T07:15:58.172Z,1.87
2018-06-16T07:18:28.326Z,1.80
2018-06-16T07:20:58.452Z,1.20
2018-06-16T07:23:28.591Z,1.57
2018-06-16T07:25:58.727Z,1.60
2018-06-16T07:28:28.856Z,1.80
2018-06-16T07:30:58.996Z,1.60
2018-06-16T07:33:29.149Z,1.40
2018-06-16T07:35:59.331Z,1.60
2018-06-16T07:38:29.396Z,1.53
2018-06-16T07:40:59.589Z,1.43
2018-06-16T07:43:29.693Z,0.93
2018-06-16T07:46:00.686Z,1.40
2018-06-16T07:48:30.817Z,1.13
2018-06-16T07:51:00.650Z,1.50
2018-06-16T07:53:30.552Z,1.20
2018-06-16T07:56:00.692Z,1.10
2018-06-16T07:58:30.793Z,0.87
2018-06-16T08:01:00.856Z,1.43
2018-06-16T08:03:31.301Z,1.30
2018-06-16T08:06:01.460Z,1.20
2018-06-16T08:08:31.258Z,1.07
2018-06-16T08:11:01.656Z,1.20
2018-06-16T08:13:31.764Z,1.03
2018-06-16T08:16:01.867Z,1.20
2018-06-16T08:18:32.006Z,1.10
2018-06-16T08:21:02.161Z,1.33
2018-06-16T08:23:32.274Z,0.83
2018-06-16T08:26:02.370Z,1.07
2018-06-16T08:28:32.450Z,1.00
2018-06-16T08:31:02.534Z,0.97
2018-06-16T08:33:32.732Z,0.90
2018-06-16T08:36:02.844Z,0.93
2018-06-16T08:38:32.916Z,0.80
2018-06-16T08:41:03.028Z,0.57
2018-06-16T08:43:33.120Z,1.10
2018-06-16T08:46:03.264Z,0.97
2018-06-16T08:48:33.327Z,1.20
2018-06-16T08:51:03.413Z,1.00
2018-06-16T08:53:33.524Z,0.90
2018-06-16T08:56:03.642Z,1.00
2018-06-16T08:58:33.805Z,0.90
2018-06-16T09:01:04.044Z,1.10
2018-06-16T09:03:34.347Z,1.03
2018-06-16T09:06:04.536Z,1.07
2018-06-16T09:08:34.888Z,0.90
2018-06-16T09:11:04.973Z,1.00
2018-06-16T09:13:35.140Z,1.10
2018-06-16T09:16:05.244Z,0.90
2018-06-16T09:18:35.382Z,0.70
2018-06-16T09:21:05.500Z,0.60
2018-06-16T09:23:35.640Z,0.77
2018-06-16T09:26:05.797Z,0.77
2018-06-16T09:28:35.880Z,0.80
2018-06-16T09:31:06.084Z,0.70
2018-06-16T09:33:36.197Z,0.73
2018-06-16T09:36:06.641Z,0.60
2018-06-16T09:38:36.756Z,0.50
2018-06-16T09:41:06.928Z,0.33
2018-06-16T09:43:37.004Z,0.57
2018-06-16T09:46:07.069Z,0.60
2018-06-16T09:48:37.190Z,0.53
2018-06-16T09:51:07.280Z,0.80
2018-06-16T09:53:37.412Z,0.60
2018-06-16T09:56:07.655Z,0.70
2018-06-16T09:58:37.764Z,0.80
2018-06-16T10:01:07.871Z,0.50
2018-06-16T10:03:37.946Z,0.40
2018-06-16T10:06:07.984Z,0.80
2018-06-16T10:08:38.093Z,0.50
2018-06-16T10:11:08.255Z,0.53
2018-06-16T10:13:38.372Z,0.70
2018-06-16T10:16:08.516Z,0.80
2018-06-16T10:18:38.645Z,0.90
2018-06-16T10:21:08.795Z,0.50
2018-06-16T10:23:38.888Z,0.50
2018-06-16T10:26:09.041Z,0.83
2018-06-16T10:28:39.324Z,1.57
2018-06-16T10:31:09.448Z,1.10
2018-06-16T10:33:39.531Z,0.77
2018-06-16T10:36:09.633Z,0.70
2018-06-16T10:38:39.704Z,0.83
2018-06-16T10:41:09.921Z,0.80
2018-06-16T10:43:40.030Z,0.77
2018-06-16T10:46:10.116Z,0.63
2018-06-16T10:48:40.296Z,0.70
2018-06-16T10:51:10.564Z,0.67
2018-06-16T10:53:40.684Z,0.67
2018-06-16T10:56:10.800Z,0.83
2018-06-16T10:58:40.899Z,0.73
2018-06-16T11:01:11.029Z,1.17
2018-06-16T11:03:41.127Z,0.70
2018-06-16T11:06:11.142Z,0.97
2018-06-16T11:08:41.224Z,0.80
2018-06-16T11:11:11.304Z,1.00
2018-06-16T11:13:41.442Z,0.83
2018-06-16T11:16:11.576Z,0.67
2018-06-16T11:18:41.734Z,0.80
2018-06-16T11:21:12.060Z,0.93
2018-06-16T11:23:42.148Z,1.10
2018-06-16T11:26:12.240Z,0.97
2018-06-16T11:28:42.308Z,0.70
2018-06-16T11:31:12.493Z,0.97
2018-06-16T11:33:42.773Z,1.03
2018-06-16T11:36:12.887Z,0.97
2018-06-16T11:38:42.994Z,0.97
2018-06-16T11:41:13.148Z,1.10
2018-06-16T11:43:43.448Z,0.93
2018-06-16T11:46:13.760Z,1.00
2018-06-16T11:48:43.606Z,1.20
2018-06-16T11:51:13.548Z,1.03
2018-06-16T11:53:43.651Z,1.73
2018-06-16T11:56:13.840Z,1.00
2018-06-16T11:58:43.933Z,0.97
2018-06-16T12:01:14.760Z,1.30
2018-06-16T12:03:44.832Z,0.90
2018-06-16T12:06:14.933Z,1.00
2018-06-16T12:08:45.083Z,0.87
2018-06-16T12:11:15.315Z,1.10
2018-06-16T12:13:46.190Z,1.00
2018-06-16T12:16:16.763Z,1.20
2018-06-16T12:18:46.927Z,0.83
2018-06-16T12:21:17.114Z,1.20
2018-06-16T12:23:47.132Z,0.70
2018-06-16T12:26:16.920Z,1.13
2018-06-16T12:28:47.080Z,0.73
2018-06-16T12:31:17.191Z,1.93
2018-06-16T12:33:47.300Z,1.00
2018-06-16T12:36:17.637Z,0.70
2018-06-16T12:38:47.806Z,1.00
2018-06-16T12:41:18.056Z,1.20
2018-06-16T12:43:48.459Z,1.03
2018-06-16T12:46:18.680Z,0.77
2018-06-16T12:48:48.737Z,0.80
2018-06-16T12:51:18.501Z,0.97
2018-06-16T12:53:48.299Z,0.90
2018-06-16T12:56:18.425Z,1.80
2018-06-16T12:58:48.574Z,0.93
2018-06-16T13:01:18.676Z,0.90
2018-06-16T13:03:48.867Z,0.80
2018-06-16T13:06:19.049Z,1.00
2018-06-16T13:08:49.133Z,0.70
2018-06-16T13:11:19.492Z,0.97
2018-06-16T13:13:49.680Z,0.80
2018-06-16T13:16:19.815Z,0.80
2018-06-16T13:18:49.972Z,0.80
2018-06-16T13:21:20.191Z,0.67
2018-06-16T13:23:50.308Z,0.77
2018-06-16T13:26:20.075Z,1.13
2018-06-16T13:28:49.921Z,0.90
2018-06-16T13:31:20.085Z,1.30
2018-06-16T13:33:50.160Z,0.90
2018-06-16T13:36:20.529Z,0.80
2018-06-16T13:38:50.635Z,0.70
2018-06-16T13:41:20.784Z,0.53
2018-06-16T13:43:51.042Z,1.13
2018-06-16T13:46:21.267Z,0.87
2018-06-16T13:48:51.388Z,0.70
2018-06-16T13:51:21.743Z,0.80
2018-06-16T13:53:51.916Z,0.73
2018-06-16T13:56:22.228Z,0.50
2018-06-16T13:58:52.687Z,0.90
2018-06-16T14:01:22.802Z,0.70
2018-06-16T14:03:52.880Z,0.70
2018-06-16T14:06:22.976Z,0.87
2018-06-16T14:08:53.075Z,0.70
2018-06-16T14:11:23.144Z,0.67
2018-06-16T14:13:53.314Z,1.10
2018-06-16T14:16:23.428Z,0.90
2018-06-16T14:18:53.572Z,0.83
2018-06-16T14:21:23.606Z,0.80
2018-06-16T14:23:53.688Z,0.70
2018-06-16T14:26:23.795Z,0.80
2018-06-16T14:28:53.876Z,1.03
2018-06-16T14:31:24.000Z,0.60
2018-06-16T14:33:54.184Z,0.70
2018-06-16T14:36:24.284Z,0.83
2018-06-16T14:38:54.576Z,1.13
2018-06-16T14:41:24.379Z,0.93
2018-06-16T14:43:54.296Z,1.57
2018-06-16T14:46:24.649Z,0.73
2018-06-16T14:48:54.840Z,0.80
2018-06-16T14:51:24.941Z,0.70
2018-06-16T14:53:54.990Z,0.80
2018-06-16T14:56:25.211Z,0.90
2018-06-16T14:58:55.312Z,0.97
2018-06-16T15:01:25.400Z,0.83
2018-06-16T15:03:55.820Z,0.60
2018-06-16T15:06:25.919Z,1.57
2018-06-16T15:08:56.156Z,1.90
2018-06-16T15:11:26.304Z,2.93
2018-06-16T15:13:56.474Z,2.10
2018-06-16T15:16:26.216Z,1.50
2018-06-16T15:18:56.088Z,1.20
2018-06-16T15:21:26.241Z,0.73
2018-06-16T15:23:56.596Z,0.77
2018-06-16T15:26:26.664Z,0.73
2018-06-16T15:28:56.411Z,0.90
2018-06-16T15:31:26.262Z,0.70
2018-06-16T15:33:56.427Z,1.07
2018-06-16T15:36:26.588Z,0.83
2018-06-16T15:38:56.853Z,0.60
2018-06-16T15:41:26.608Z,1.10
2018-06-16T15:43:56.372Z,0.93
2018-06-16T15:46:26.529Z,0.90
2018-06-16T15:48:56.722Z,0.70
2018-06-16T15:51:26.777Z,1.03
2018-06-16T15:53:56.896Z,1.07
2018-06-16T15:56:26.929Z,1.10
2018-06-16T15:58:57.057Z,0.73
2018-06-16T16:01:27.154Z,0.80
2018-06-16T16:03:57.272Z,0.80
2018-06-16T16:06:27.362Z,0.93
2018-06-16T16:08:57.440Z,0.83
2018-06-16T16:11:27.532Z,1.10
2018-06-16T16:13:57.681Z,0.90
2018-06-16T16:16:27.920Z,0.93
2018-06-16T16:18:58.312Z,0.60
2018-06-16T16:21:28.427Z,0.70
2018-06-16T16:23:58.608Z,0.70
2018-06-16T16:26:28.648Z,0.70
2018-06-16T16:28:58.851Z,0.80
2018-06-16T16:31:29.080Z,0.70
2018-06-16T16:33:59.236Z,0.93
2018-06-16T16:36:29.328Z,0.90
2018-06-16T16:38:59.380Z,1.07
2018-06-16T16:41:29.476Z,1.57
2018-06-16T16:43:59.593Z,1.73
2018-06-16T16:46:29.688Z,2.40
2018-06-16T16:48:59.819Z,0.93
2018-06-16T16:51:29.909Z,0.60
2018-06-16T16:54:00.093Z,0.87
2018-06-16T16:56:30.225Z,0.80
2018-06-16T16:59:00.387Z,0.70
2018-06-16T17:01:30.473Z,1.03
2018-06-16T17:04:00.566Z,0.87
2018-06-16T17:06:30.633Z,1.13
2018-06-16T17:09:00.752Z,0.97
2018-06-16T17:11:30.825Z,0.90
2018-06-16T17:14:00.953Z,0.83
2018-06-16T17:16:31.211Z,0.60
2018-06-16T17:19:01.288Z,0.90
2018-06-16T17:21:31.459Z,0.90
2018-06-16T17:24:01.515Z,0.90
2018-06-16T17:26:31.634Z,0.90
2018-06-16T17:29:01.687Z,0.80
2018-06-16T17:31:31.994Z,0.90
2018-06-16T17:34:02.067Z,0.90
2018-06-16T17:36:32.148Z,1.20
2018-06-16T17:39:01.885Z,0.70
2018-06-16T17:41:31.860Z,1.00
2018-06-16T17:44:01.968Z,0.77
2018-06-16T17:46:32.110Z,1.20
2018-06-16T17:49:01.937Z,1.00
2018-06-16T17:51:31.827Z,0.87
2018-06-16T17:54:01.928Z,0.77
2018-06-16T17:56:32.224Z,0.80
2018-06-16T17:59:02.654Z,1.10
2018-06-16T18:01:32.975Z,0.90
2018-06-16T18:04:03.063Z,1.33
2018-06-16T18:06:32.819Z,0.90
2018-06-16T18:09:02.877Z,1.00
2018-06-16T18:11:32.950Z,0.80
2018-06-16T18:14:03.032Z,0.90
2018-06-16T18:16:33.141Z,0.63
2018-06-16T18:19:03.195Z,1.10
2018-06-16T18:21:33.568Z,0.70
2018-06-16T18:24:03.743Z,0.90
2018-06-16T18:26:33.838Z,0.80
2018-06-16T18:29:03.966Z,0.90
2018-06-16T18:31:34.159Z,0.90
2018-06-16T18:34:04.276Z,1.20
2018-06-16T18:36:34.048Z,0.70
2018-06-16T18:39:05.612Z,0.83
2018-06-16T18:41:35.723Z,0.77
2018-06-16T18:44:06.588Z,0.73
2018-06-16T18:46:37.069Z,0.70
2018-06-16T18:49:07.178Z,0.93
2018-06-16T18:51:37.477Z,0.97
2018-06-16T18:54:07.584Z,0.70
2018-06-16T18:56:37.756Z,1.17
2018-06-16T18:59:07.584Z,0.80
2018-06-16T19:01:37.492Z,1.00
2018-06-16T19:04:07.643Z,0.90
2018-06-16T19:06:37.552Z,0.50
2018-06-16T19:09:08.727Z,0.97
2018-06-16T19:11:39.104Z,0.80
2018-06-16T19:14:09.228Z,1.00
2018-06-16T19:16:39.308Z,0.80
2018-06-16T19:19:09.504Z,0.50
2018-06-16T19:21:39.605Z,0.80
2018-06-16T19:24:09.741Z,0.83
2018-06-16T19:26:39.972Z,1.30
2018-06-16T19:29:10.645Z,0.80
2018-06-16T19:31:40.732Z,0.73
2018-06-16T19:34:10.820Z,1.00
2018-06-16T19:36:40.616Z,0.80
2018-06-16T19:39:12.204Z,0.80
2018-06-16T19:41:42.303Z,0.70
2018-06-16T19:44:12.436Z,0.50
2018-06-16T19:46:42.540Z,0.83
2018-06-16T19:49:12.927Z,0.67
2018-06-16T19:51:43.134Z,0.80
2018-06-16T19:54:13.248Z,0.83
2018-06-16T19:56:43.390Z,0.90
2018-06-16T19:59:13.472Z,0.80
2018-06-16T20:01:43.640Z,1.10
2018-06-16T20:04:13.915Z,0.80
2018-06-16T20:06:44.081Z,0.70
2018-06-16T20:09:14.384Z,0.50
2018-06-16T20:11:44.732Z,0.70
2018-06-16T20:14:14.826Z,1.00
2018-06-16T20:16:44.937Z,1.00
2018-06-16T20:19:15.132Z,0.70
2018-06-16T20:21:45.225Z,0.87
2018-06-16T20:24:15.336Z,0.80
2018-06-16T20:26:45.614Z,0.83
2018-06-16T20:29:16.064Z,1.10
2018-06-16T20:31:46.184Z,0.63
2018-06-16T20:34:16.318Z,0.90
2018-06-16T20:36:46.389Z,0.90
2018-06-16T20:39:16.468Z,1.10
2018-06-16T20:41:46.708Z,0.90
2018-06-16T20:44:16.856Z,0.70
2018-06-16T20:46:46.906Z,1.20
2018-06-16T20:49:16.988Z,0.80
2018-06-16T20:51:47.068Z,0.90
2018-06-16T20:54:17.117Z,0.60
2018-06-16T20:56:47.364Z,1.10
2018-06-16T20:59:17.464Z,1.53
2018-06-16T21:01:47.556Z,1.17
2018-06-16T21:04:17.657Z,1.20
2018-06-16T21:06:47.732Z,1.10
2018-06-16T21:09:17.812Z,0.87
2018-06-16T21:11:47.900Z,0.80
2018-06-16T21:14:18.049Z,0.67
2018-06-16T21:16:48.335Z,1.00
2018-06-16T21:19:18.660Z,1.00
2018-06-16T21:21:48.419Z,1.40
2018-06-16T21:24:18.576Z,1.90
2018-06-16T21:26:48.345Z,2.57
2018-06-16T21:29:18.304Z,2.33
2018-06-16T21:31:48.460Z,0.97
2018-06-16T21:34:18.511Z,1.10
2018-06-16T21:36:48.652Z,1.33
2018-06-16T21:39:18.752Z,1.23
2018-06-16T21:41:48.946Z,1.20
2018-06-16T21:44:19.466Z,1.20
2018-06-16T21:46:49.540Z,1.00
2018-06-16T21:49:19.614Z,1.07
2018-06-16T21:51:49.856Z,0.90
2018-06-16T21:54:19.996Z,1.10
2018-06-16T21:56:50.252Z,0.77
2018-06-16T21:59:21.177Z,0.77
2018-06-16T22:01:51.521Z,1.23
2018-06-16T22:04:21.792Z,0.80
2018-06-16T22:06:51.789Z,0.87
2018-06-16T22:09:21.988Z,0.90
2018-06-16T22:11:52.049Z,0.80
2018-06-16T22:14:22.304Z,1.00
2018-06-16T22:16:52.555Z,0.97
2018-06-16T22:19:22.564Z,0.70
2018-06-16T22:21:52.324Z,0.83
2018-06-16T22:24:22.304Z,0.97
2018-06-16T22:26:52.347Z,1.10
2018-06-16T22:29:22.443Z,0.70
2018-06-16T22:31:52.460Z,1.00
2018-06-16T22:34:22.496Z,0.93
2018-06-16T22:36:52.624Z,0.73
2018-06-16T22:39:22.423Z,1.73
2018-06-16T22:41:52.360Z,1.50
2018-06-16T22:44:22.410Z,1.37
2018-06-16T22:46:52.460Z,0.80
2018-06-16T22:49:22.560Z,1.07
2018-06-16T22:51:52.645Z,0.80
2018-06-16T22:54:22.684Z,1.17
2018-06-16T22:56:52.772Z,1.87
2018-06-16T22:59:22.804Z,1.00
2018-06-16T23:01:52.868Z,1.03
2018-06-16T23:04:22.919Z,1.00
2018-06-16T23:06:53.000Z,0.90
2018-06-16T23:09:23.055Z,1.13
2018-06-16T23:11:53.073Z,1.10
2018-06-16T23:14:23.185Z,1.17
2018-06-16T23:16:53.217Z,1.07
2018-06-16T23:19:23.288Z,1.10
2018-06-16T23:21:53.296Z,1.00
2018-06-16T23:24:23.348Z,1.07
2018-06-16T23:26:53.564Z,1.07
2018-06-16T23:29:23.612Z,1.20
2018-06-16T23:31:53.380Z,1.10
2018-06-16T23:34:23.159Z,0.90
2018-06-16T23:36:53.284Z,1.27
2018-06-16T23:39:22.986Z,1.23
2018-06-16T23:41:52.784Z,1.50
2018-06-16T23:44:22.843Z,0.87
2018-06-16T23:46:52.936Z,0.87
2018-06-16T23:49:22.980Z,1.07
2018-06-16T23:51:52.996Z,1.53
2018-06-16T23:54:23.025Z,0.60
2018-06-16T23:56:53.068Z,1.00
2018-06-16T23:59:23.146Z,0.87
